sensor_id;sensor_type;location;lat;lon;timestamp;pressure;altitude;pressure_sealevel;temperature;humidity
48244;BME280;34053;51.088;6.572;2022-09-09T00:05:00;100290.09;;;18.85;59.73
48244;BME280;34053;51.088;6.572;2022-09-09T00:07:43;100287.97;;;18.78;60.23
48244;BME280;34053;51.088;6.572;2022-09-09T00:10:29;100287.31;;;18.74;60.15
48244;BME280;34053;51.088;6.572;2022-09-09T00:21:05;100285.19;;;18.66;60.59
48244;BME280;34053;51.088;6.572;2022-09-09T00:23:39;100285.84;;;18.70;59.86
48244;BME280;34053;51.088;6.572;2022-09-09T00:26:19;100279.78;;;18.68;60.02
48244;BME280;34053;51.088;6.572;2022-09-09T00:31:30;100278.25;;;18.64;60.29
48244;BME280;34053;51.088;6.572;2022-09-09T00:34:13;100273.72;;;18.66;60.17
48244;BME280;34053;51.088;6.572;2022-09-09T00:36:45;100280.91;;;18.64;60.20
48244;BME280;34053;51.088;6.572;2022-09-09T00:39:34;100283.50;;;18.65;60.49
48244;BME280;34053;51.088;6.572;2022-09-09T00:44:59;100267.44;;;18.54;60.17
48244;BME280;34053;51.088;6.572;2022-09-09T00:58:59;100286.75;;;18.43;60.52
48244;BME280;34053;51.088;6.572;2022-09-09T01:01:34;100286.94;;;18.40;60.20
48244;BME280;34053;51.088;6.572;2022-09-09T01:04:13;100289.41;;;18.43;60.64
48244;BME280;34053;51.088;6.572;2022-09-09T01:06:48;100278.13;;;18.39;60.54
48244;BME280;34053;51.088;6.572;2022-09-09T01:12:41;100272.50;;;18.31;60.67
48244;BME280;34053;51.088;6.572;2022-09-09T01:15:17;100279.59;;;18.31;60.72
48244;BME280;34053;51.088;6.572;2022-09-09T01:26:41;100265.31;;;18.19;60.87
48244;BME280;34053;51.088;6.572;2022-09-09T01:29:14;100270.75;;;18.17;60.69
48244;BME280;34053;51.088;6.572;2022-09-09T01:31:59;100272.75;;;18.14;60.74
48244;BME280;34053;51.088;6.572;2022-09-09T01:34:34;100282.72;;;18.10;60.64
48244;BME280;34053;51.088;6.572;2022-09-09T01:37:08;100280.38;;;18.05;60.66
48244;BME280;34053;51.088;6.572;2022-09-09T01:39:42;100276.88;;;18.05;60.79
48244;BME280;34053;51.088;6.572;2022-09-09T01:42:16;100271.66;;;18.03;60.57
48244;BME280;34053;51.088;6.572;2022-09-09T01:44:47;100269.09;;;18.02;60.58
48244;BME280;34053;51.088;6.572;2022-09-09T01:47:17;100270.34;;;17.96;61.04
48244;BME280;34053;51.088;6.572;2022-09-09T01:49:48;100277.75;;;17.91;60.95
48244;BME280;34053;51.088;6.572;2022-09-09T01:52:18;100279.06;;;17.98;60.98
48244;BME280;34053;51.088;6.572;2022-09-09T01:54:49;100265.13;;;17.94;61.00
48244;BME280;34053;51.088;6.572;2022-09-09T02:00:06;100266.47;;;17.87;60.94
48244;BME280;34053;51.088;6.572;2022-09-09T02:08:17;100275.31;;;17.73;62.35
48244;BME280;34053;51.088;6.572;2022-09-09T02:11:23;100275.78;;;17.80;61.04
48244;BME280;34053;51.088;6.572;2022-09-09T02:14:01;100274.09;;;17.79;61.56
48244;BME280;34053;51.088;6.572;2022-09-09T02:16:58;100270.84;;;17.74;61.95
48244;BME280;34053;51.088;6.572;2022-09-09T02:19:37;100268.41;;;17.71;62.12
48244;BME280;34053;51.088;6.572;2022-09-09T02:22:10;100264.81;;;17.72;61.62
48244;BME280;34053;51.088;6.572;2022-09-09T02:24:40;100266.50;;;17.73;61.97
48244;BME280;34053;51.088;6.572;2022-09-09T02:27:11;100267.25;;;17.75;61.47
48244;BME280;34053;51.088;6.572;2022-09-09T02:29:43;100262.25;;;17.70;64.77
48244;BME280;34053;51.088;6.572;2022-09-09T02:32:17;100261.94;;;17.75;64.52
48244;BME280;34053;51.088;6.572;2022-09-09T02:35:17;100267.66;;;17.69;62.67
48244;BME280;34053;51.088;6.572;2022-09-09T02:37:46;100264.25;;;17.67;62.56
48244;BME280;34053;51.088;6.572;2022-09-09T02:40:17;100266.13;;;17.65;62.37
48244;BME280;34053;51.088;6.572;2022-09-09T02:42:48;100258.94;;;17.67;62.68
48244;BME280;34053;51.088;6.572;2022-09-09T02:45:23;100261.69;;;17.65;62.99
48244;BME280;34053;51.088;6.572;2022-09-09T02:50:33;100255.44;;;17.66;63.96
48244;BME280;34053;51.088;6.572;2022-09-09T02:53:15;100247.91;;;17.60;62.32
48244;BME280;34053;51.088;6.572;2022-09-09T02:56:09;100251.38;;;17.60;62.72
48244;BME280;34053;51.088;6.572;2022-09-09T02:58:38;100246.84;;;17.62;62.31
48244;BME280;34053;51.088;6.572;2022-09-09T03:04:16;100248.78;;;17.73;62.37
48244;BME280;34053;51.088;6.572;2022-09-09T03:06:57;100242.44;;;17.76;63.20
48244;BME280;34053;51.088;6.572;2022-09-09T03:09:32;100239.72;;;17.63;62.61
48244;BME280;34053;51.088;6.572;2022-09-09T03:12:03;100247.91;;;17.60;62.72
48244;BME280;34053;51.088;6.572;2022-09-09T03:14:38;100241.31;;;17.66;63.02
48244;BME280;34053;51.088;6.572;2022-09-09T03:17:08;100238.97;;;17.61;63.35
48244;BME280;34053;51.088;6.572;2022-09-09T03:19:39;100240.88;;;17.59;63.37
48244;BME280;34053;51.088;6.572;2022-09-09T03:22:10;100243.25;;;17.64;64.55
48244;BME280;34053;51.088;6.572;2022-09-09T03:24:41;100239.59;;;17.65;64.74
48244;BME280;34053;51.088;6.572;2022-09-09T03:27:12;100241.19;;;17.54;64.21
48244;BME280;34053;51.088;6.572;2022-09-09T03:29:44;100238.41;;;17.56;64.00
48244;BME280;34053;51.088;6.572;2022-09-09T03:32:15;100232.16;;;17.57;64.09
48244;BME280;34053;51.088;6.572;2022-09-09T03:34:48;100245.13;;;17.61;64.08
48244;BME280;34053;51.088;6.572;2022-09-09T03:37:22;100243.03;;;17.67;63.71
48244;BME280;34053;51.088;6.572;2022-09-09T03:39:53;100243.31;;;17.62;64.12
48244;BME280;34053;51.088;6.572;2022-09-09T03:42:24;100246.06;;;17.60;64.30
48244;BME280;34053;51.088;6.572;2022-09-09T03:44:55;100233.94;;;17.56;64.40
48244;BME280;34053;51.088;6.572;2022-09-09T03:47:28;100236.41;;;17.59;63.70
48244;BME280;34053;51.088;6.572;2022-09-09T03:49:58;100248.84;;;17.59;64.73
48244;BME280;34053;51.088;6.572;2022-09-09T03:52:29;100243.59;;;17.57;63.89
48244;BME280;34053;51.088;6.572;2022-09-09T03:55:00;100247.97;;;17.58;64.39
48244;BME280;34053;51.088;6.572;2022-09-09T03:57:31;100244.78;;;17.53;64.82
48244;BME280;34053;51.088;6.572;2022-09-09T04:00:06;100247.22;;;17.56;64.03
48244;BME280;34053;51.088;6.572;2022-09-09T04:02:38;100249.50;;;17.48;64.61
48244;BME280;34053;51.088;6.572;2022-09-09T04:05:09;100245.16;;;17.47;63.86
48244;BME280;34053;51.088;6.572;2022-09-09T04:07:40;100249.50;;;17.48;64.32
48244;BME280;34053;51.088;6.572;2022-09-09T04:10:10;100250.06;;;17.53;63.69
48244;BME280;34053;51.088;6.572;2022-09-09T04:12:41;100253.13;;;17.47;64.14
48244;BME280;34053;51.088;6.572;2022-09-09T04:15:12;100253.84;;;17.49;63.94
48244;BME280;34053;51.088;6.572;2022-09-09T04:17:42;100253.50;;;17.41;64.93
48244;BME280;34053;51.088;6.572;2022-09-09T04:20:12;100257.16;;;17.53;64.06
48244;BME280;34053;51.088;6.572;2022-09-09T04:22:43;100252.25;;;17.46;63.70
48244;BME280;34053;51.088;6.572;2022-09-09T04:25:14;100249.34;;;17.37;65.35
48244;BME280;34053;51.088;6.572;2022-09-09T04:27:44;100243.00;;;17.39;64.82
48244;BME280;34053;51.088;6.572;2022-09-09T04:30:15;100242.69;;;17.44;65.06
48244;BME280;34053;51.088;6.572;2022-09-09T04:32:46;100246.19;;;17.44;66.69
48244;BME280;34053;51.088;6.572;2022-09-09T04:35:17;100241.19;;;17.40;64.76
48244;BME280;34053;51.088;6.572;2022-09-09T04:37:48;100241.09;;;17.41;65.77
48244;BME280;34053;51.088;6.572;2022-09-09T04:40:23;100240.16;;;17.42;64.84
48244;BME280;34053;51.088;6.572;2022-09-09T04:42:53;100235.09;;;17.52;65.01
48244;BME280;34053;51.088;6.572;2022-09-09T04:45:24;100237.59;;;17.41;64.65
48244;BME280;34053;51.088;6.572;2022-09-09T04:47:54;100239.50;;;17.39;64.23
48244;BME280;34053;51.088;6.572;2022-09-09T04:50:25;100237.97;;;17.35;64.59
48244;BME280;34053;51.088;6.572;2022-09-09T04:52:55;100237.97;;;17.35;64.37
48244;BME280;34053;51.088;6.572;2022-09-09T04:55:26;100237.78;;;17.38;65.14
48244;BME280;34053;51.088;6.572;2022-09-09T04:57:57;100246.59;;;17.38;64.30
48244;BME280;34053;51.088;6.572;2022-09-09T05:00:28;100241.94;;;17.42;64.78
48244;BME280;34053;51.088;6.572;2022-09-09T05:03:02;100242.69;;;17.44;64.92
48244;BME280;34053;51.088;6.572;2022-09-09T05:05:36;100248.47;;;17.36;65.87
48244;BME280;34053;51.088;6.572;2022-09-09T05:08:08;100240.81;;;17.46;64.64
48244;BME280;34053;51.088;6.572;2022-09-09T05:10:39;100242.69;;;17.44;64.46
48244;BME280;34053;51.088;6.572;2022-09-09T05:13:11;100238.44;;;17.41;64.68
48244;BME280;34053;51.088;6.572;2022-09-09T05:15:42;100247.34;;;17.40;64.29
48244;BME280;34053;51.088;6.572;2022-09-09T05:18:21;100244.97;;;17.50;65.50
48244;BME280;34053;51.088;6.572;2022-09-09T05:20:52;100247.16;;;17.43;63.92
48244;BME280;34053;51.088;6.572;2022-09-09T05:23:23;100244.50;;;17.43;64.55
48244;BME280;34053;51.088;6.572;2022-09-09T05:25:55;100242.69;;;17.44;64.71
48244;BME280;34053;51.088;6.572;2022-09-09T05:28:27;100245.16;;;17.47;64.98
48244;BME280;34053;51.088;6.572;2022-09-09T05:31:07;100243.47;;;17.46;64.57
48244;BME280;34053;51.088;6.572;2022-09-09T05:33:41;100248.13;;;17.42;64.34
48244;BME280;34053;51.088;6.572;2022-09-09T05:36:20;100250.56;;;17.45;65.20
48244;BME280;34053;51.088;6.572;2022-09-09T05:38:51;100248.84;;;17.44;64.88
48244;BME280;34053;51.088;6.572;2022-09-09T05:41:26;100251.03;;;17.52;64.89
48244;BME280;34053;51.088;6.572;2022-09-09T05:43:57;100251.22;;;17.49;67.52
48244;BME280;34053;51.088;6.572;2022-09-09T05:46:29;100254.44;;;17.54;66.47
48244;BME280;34053;51.088;6.572;2022-09-09T05:49:02;100252.72;;;17.53;66.29
48244;BME280;34053;51.088;6.572;2022-09-09T05:51:33;100247.59;;;17.50;66.54
48244;BME280;34053;51.088;6.572;2022-09-09T05:54:03;100253.13;;;17.47;68.02
48244;BME280;34053;51.088;6.572;2022-09-09T05:56:34;100250.84;;;17.55;66.96
48244;BME280;34053;51.088;6.572;2022-09-09T05:59:05;100254.31;;;17.56;65.92
48244;BME280;34053;51.088;6.572;2022-09-09T06:01:39;100255.53;;;17.65;66.37
48244;BME280;34053;51.088;6.572;2022-09-09T06:04:10;100257.22;;;17.66;67.08
48244;BME280;34053;51.088;6.572;2022-09-09T06:06:41;100255.16;;;17.71;66.68
48244;BME280;34053;51.088;6.572;2022-09-09T06:09:12;100256.16;;;17.55;68.92
48244;BME280;34053;51.088;6.572;2022-09-09T06:11:44;100252.91;;;17.50;67.78
48244;BME280;34053;51.088;6.572;2022-09-09T06:14:14;100255.63;;;17.63;67.57
48244;BME280;34053;51.088;6.572;2022-09-09T06:16:45;100254.88;;;17.61;66.87
48244;BME280;34053;51.088;6.572;2022-09-09T06:19:16;100256.78;;;17.59;67.17
48244;BME280;34053;51.088;6.572;2022-09-09T06:21:47;100252.50;;;17.56;67.90
48244;BME280;34053;51.088;6.572;2022-09-09T06:24:18;100250.91;;;17.54;67.42
48244;BME280;34053;51.088;6.572;2022-09-09T06:26:50;100262.88;;;17.46;67.41
48244;BME280;34053;51.088;6.572;2022-09-09T06:29:20;100249.31;;;17.51;67.22
48244;BME280;34053;51.088;6.572;2022-09-09T06:31:51;100255.50;;;17.52;66.82
48244;BME280;34053;51.088;6.572;2022-09-09T06:34:21;100258.44;;;17.47;67.68
48244;BME280;34053;51.088;6.572;2022-09-09T06:36:52;100258.72;;;17.42;67.07
48244;BME280;34053;51.088;6.572;2022-09-09T06:39:23;100248.19;;;17.55;66.18
48244;BME280;34053;51.088;6.572;2022-09-09T06:41:53;100248.19;;;17.55;66.26
48244;BME280;34053;51.088;6.572;2022-09-09T06:44:24;100250.25;;;17.50;66.31
48244;BME280;34053;51.088;6.572;2022-09-09T06:46:56;100249.69;;;17.59;65.85
48244;BME280;34053;51.088;6.572;2022-09-09T06:49:27;100252.97;;;17.63;66.12
48244;BME280;34053;51.088;6.572;2022-09-09T06:51:57;100251.03;;;17.52;66.10
48244;BME280;34053;51.088;6.572;2022-09-09T06:54:28;100248.63;;;17.62;65.48
48244;BME280;34053;51.088;6.572;2022-09-09T06:56:59;100245.91;;;17.49;65.81
48244;BME280;34053;51.088;6.572;2022-09-09T06:59:30;100250.44;;;17.61;65.29
48244;BME280;34053;51.088;6.572;2022-09-09T07:02:04;100249.09;;;17.69;65.44
48244;BME280;34053;51.088;6.572;2022-09-09T07:04:38;100249.78;;;17.58;65.24
48244;BME280;34053;51.088;6.572;2022-09-09T07:07:09;100251.56;;;17.57;65.60
48244;BME280;34053;51.088;6.572;2022-09-09T07:09:42;100264.94;;;17.56;65.80
48244;BME280;34053;51.088;6.572;2022-09-09T07:12:12;100255.94;;;17.58;65.85
48244;BME280;34053;51.088;6.572;2022-09-09T07:14:43;100259.34;;;17.60;65.62
48244;BME280;34053;51.088;6.572;2022-09-09T07:17:13;100263.00;;;17.72;65.47
48244;BME280;34053;51.088;6.572;2022-09-09T07:19:44;100258.88;;;17.68;65.14
48244;BME280;34053;51.088;6.572;2022-09-09T07:22:15;100261.03;;;17.61;64.81
48244;BME280;34053;51.088;6.572;2022-09-09T07:24:46;100268.78;;;17.65;64.35
48244;BME280;34053;51.088;6.572;2022-09-09T07:27:19;100267.41;;;17.59;64.43
48244;BME280;34053;51.088;6.572;2022-09-09T07:29:51;100273.16;;;17.66;64.00
48244;BME280;34053;51.088;6.572;2022-09-09T07:32:21;100276.56;;;17.68;64.29
48244;BME280;34053;51.088;6.572;2022-09-09T07:34:52;100276.84;;;17.63;64.47
48244;BME280;34053;51.088;6.572;2022-09-09T07:37:22;100279.97;;;17.70;63.56
48244;BME280;34053;51.088;6.572;2022-09-09T07:39:53;100274.09;;;17.79;63.48
48244;BME280;34053;51.088;6.572;2022-09-09T07:42:23;100270.03;;;17.73;63.82
48244;BME280;34053;51.088;6.572;2022-09-09T07:44:54;100276.75;;;17.79;62.38
48244;BME280;34053;51.088;6.572;2022-09-09T07:47:25;100277.09;;;17.73;62.70
48244;BME280;34053;51.088;6.572;2022-09-09T07:49:55;100281.47;;;17.74;63.06
48244;BME280;34053;51.088;6.572;2022-09-09T07:52:26;100279.16;;;17.82;62.87
48244;BME280;34053;51.088;6.572;2022-09-09T07:54:57;100279.94;;;17.84;63.26
48244;BME280;34053;51.088;6.572;2022-09-09T07:57:29;100273.50;;;17.88;63.43
48244;BME280;34053;51.088;6.572;2022-09-09T08:00:07;100273.91;;;17.95;62.86
48244;BME280;34053;51.088;6.572;2022-09-09T08:02:41;100288.63;;;18.01;62.44
48244;BME280;34053;51.088;6.572;2022-09-09T08:05:14;100275.06;;;18.05;61.77
48244;BME280;34053;51.088;6.572;2022-09-09T08:07:45;100277.38;;;17.97;61.40
48244;BME280;34053;51.088;6.572;2022-09-09T08:10:16;100273.56;;;18.01;61.62
48244;BME280;34053;51.088;6.572;2022-09-09T08:12:46;100275.16;;;18.04;61.09
48244;BME280;34053;51.088;6.572;2022-09-09T08:15:17;100283.13;;;18.04;61.55
48244;BME280;34053;51.088;6.572;2022-09-09T08:17:48;100282.28;;;18.03;61.55
48244;BME280;34053;51.088;6.572;2022-09-09T08:20:19;100283.91;;;18.19;61.00
48244;BME280;34053;51.088;6.572;2022-09-09T08:22:49;100284.22;;;18.14;61.07
48244;BME280;34053;51.088;6.572;2022-09-09T08:25:20;100286.47;;;18.20;61.14
48244;BME280;34053;51.088;6.572;2022-09-09T08:27:52;100280.44;;;18.31;60.99
48244;BME280;34053;51.088;6.572;2022-09-09T08:30:23;100278.28;;;18.23;60.79
48244;BME280;34053;51.088;6.572;2022-09-09T08:32:53;100289.38;;;18.30;60.72
48244;BME280;34053;51.088;6.572;2022-09-09T08:35:24;100283.94;;;18.32;61.39
48244;BME280;34053;51.088;6.572;2022-09-09T08:37:55;100288.13;;;18.36;59.99
48244;BME280;34053;51.088;6.572;2022-09-09T08:40:29;100286.94;;;18.40;60.72
48244;BME280;34053;51.088;6.572;2022-09-09T08:43:04;100289.22;;;18.46;60.58
48244;BME280;34053;51.088;6.572;2022-09-09T08:48:52;100298.47;;;18.53;60.54
48244;BME280;34053;51.088;6.572;2022-09-09T08:51:28;100301.53;;;18.60;60.71
48244;BME280;34053;51.088;6.572;2022-09-09T08:54:02;100302.75;;;18.69;60.33
48244;BME280;34053;51.088;6.572;2022-09-09T08:56:34;100295.59;;;18.69;60.16
48244;BME280;34053;51.088;6.572;2022-09-09T08:59:04;100313.47;;;18.67;58.70
48244;BME280;34053;51.088;6.572;2022-09-09T09:10:51;100320.59;;;18.67;57.83
48244;BME280;34053;51.088;6.572;2022-09-09T09:13:26;100317.28;;;18.63;57.81
48244;BME280;34053;51.088;6.572;2022-09-09T09:16:17;100307.50;;;18.77;57.92
48244;BME280;34053;51.088;6.572;2022-09-09T09:18:50;100322.81;;;18.73;57.55
48244;BME280;34053;51.088;6.572;2022-09-09T09:24:03;100323.78;;;18.72;57.47
48244;BME280;34053;51.088;6.572;2022-09-09T09:26:36;100317.41;;;18.75;57.52
48244;BME280;34053;51.088;6.572;2022-09-09T09:29:16;100312.84;;;18.90;57.51
48244;BME280;34053;51.088;6.572;2022-09-09T09:31:52;100305.63;;;18.92;57.49
48244;BME280;34053;51.088;6.572;2022-09-09T09:34:25;100312.25;;;18.99;57.51
48244;BME280;34053;51.088;6.572;2022-09-09T09:36:56;100310.84;;;19.06;57.35
48244;BME280;34053;51.088;6.572;2022-09-09T09:39:30;100311.41;;;19.11;57.49
48244;BME280;34053;51.088;6.572;2022-09-09T09:42:16;100311.72;;;19.19;56.99
48244;BME280;34053;51.088;6.572;2022-09-09T09:44:47;100304.06;;;19.28;57.69
48244;BME280;34053;51.088;6.572;2022-09-09T09:47:21;100314.06;;;19.37;56.67
48244;BME280;34053;51.088;6.572;2022-09-09T09:49:57;100313.31;;;19.35;56.47
48244;BME280;34053;51.088;6.572;2022-09-09T09:52:33;100307.97;;;19.35;55.80
48244;BME280;34053;51.088;6.572;2022-09-09T09:55:12;100306.78;;;19.39;56.14
48244;BME280;34053;51.088;6.572;2022-09-09T09:57:44;100305.84;;;19.40;56.01
48244;BME280;34053;51.088;6.572;2022-09-09T10:00:18;100298.59;;;19.42;55.79
48244;BME280;34053;51.088;6.572;2022-09-09T10:02:49;100305.19;;;19.49;55.89
48244;BME280;34053;51.088;6.572;2022-09-09T10:05:24;100301.56;;;19.50;55.21
48244;BME280;34053;51.088;6.572;2022-09-09T10:08:10;100305.81;;;19.53;55.59
48244;BME280;34053;51.088;6.572;2022-09-09T10:18:59;100295.72;;;19.82;53.65
48244;BME280;34053;51.088;6.572;2022-09-09T10:21:41;100299.34;;;19.81;53.97
48244;BME280;34053;51.088;6.572;2022-09-09T10:26:51;100285.91;;;19.96;54.30
48244;BME280;34053;51.088;6.572;2022-09-09T10:38:12;100292.88;;;20.10;54.09
48244;BME280;34053;51.088;6.572;2022-09-09T10:46:30;100291.25;;;20.20;53.45
48244;BME280;34053;51.088;6.572;2022-09-09T10:57:33;100315.00;;;20.23;53.01
48244;BME280;34053;51.088;6.572;2022-09-09T11:02:49;100297.63;;;19.93;53.88
48244;BME280;34053;51.088;6.572;2022-09-09T11:05:29;100291.41;;;20.06;53.89
48244;BME280;34053;51.088;6.572;2022-09-09T11:08:15;100289.78;;;20.16;53.42
48244;BME280;34053;51.088;6.572;2022-09-09T11:11:04;100289.88;;;20.15;53.26
48244;BME280;34053;51.088;6.572;2022-09-09T11:14:28;100285.69;;;20.23;52.67
48244;BME280;34053;51.088;6.572;2022-09-09T11:17:04;100282.22;;;20.10;53.01
48244;BME280;34053;51.088;6.572;2022-09-09T11:19:43;100293.47;;;20.02;53.69
48244;BME280;34053;51.088;6.572;2022-09-09T11:22:33;100288.19;;;19.89;53.46
48244;BME280;34053;51.088;6.572;2022-09-09T11:42:07;100294.97;;;20.18;54.94
48244;BME280;34053;51.088;6.572;2022-09-09T11:44:45;100297.81;;;20.03;55.36
48244;BME280;34053;51.088;6.572;2022-09-09T11:47:27;100299.50;;;20.04;55.29
48244;BME280;34053;51.088;6.572;2022-09-09T11:52:49;100296.63;;;20.32;55.22
48244;BME280;34053;51.088;6.572;2022-09-09T11:55:28;100291.44;;;20.41;55.47
48244;BME280;34053;51.088;6.572;2022-09-09T11:58:04;100291.94;;;20.47;54.87
48244;BME280;34053;51.088;6.572;2022-09-09T12:00:40;100287.06;;;20.40;53.73
48244;BME280;34053;51.088;6.572;2022-09-09T12:08:44;100294.31;;;20.38;54.59
48244;BME280;34053;51.088;6.572;2022-09-09T12:11:29;100285.84;;;20.33;54.02
48244;BME280;34053;51.088;6.572;2022-09-09T12:14:01;100298.06;;;20.36;54.13
48244;BME280;34053;51.088;6.572;2022-09-09T12:16:34;100289.19;;;20.59;53.35
48244;BME280;34053;51.088;6.572;2022-09-09T12:21:59;100286.09;;;20.77;53.67
48244;BME280;34053;51.088;6.572;2022-09-09T12:27:26;100293.75;;;20.46;53.82
48244;BME280;34053;51.088;6.572;2022-09-09T12:30:08;100295.06;;;20.40;54.44
48244;BME280;34053;51.088;6.572;2022-09-09T12:32:40;100278.69;;;20.69;54.99
48244;BME280;34053;51.088;6.572;2022-09-09T12:35:20;100286.63;;;20.94;54.31
48244;BME280;34053;51.088;6.572;2022-09-09T12:38:03;100294.41;;;20.97;54.21
48244;BME280;34053;51.088;6.572;2022-09-09T12:40:35;100292.81;;;20.94;53.60
48244;BME280;34053;51.088;6.572;2022-09-09T12:43:18;100288.94;;;20.98;54.01
48244;BME280;34053;51.088;6.572;2022-09-09T12:45:53;100299.25;;;21.03;53.13
48244;BME280;34053;51.088;6.572;2022-09-09T12:48:35;100288.72;;;21.01;53.45
48244;BME280;34053;51.088;6.572;2022-09-09T12:51:33;100291.97;;;21.05;53.29
48244;BME280;34053;51.088;6.572;2022-09-09T12:54:04;100299.59;;;21.21;53.62
48244;BME280;34053;51.088;6.572;2022-09-09T12:56:38;100288.69;;;21.13;53.44
48244;BME280;34053;51.088;6.572;2022-09-09T12:59:23;100283.09;;;21.04;53.63
48244;BME280;34053;51.088;6.572;2022-09-09T13:01:58;100285.19;;;21.12;54.21
48244;BME280;34053;51.088;6.572;2022-09-09T13:04:29;100287.47;;;21.05;54.13
48244;BME280;34053;51.088;6.572;2022-09-09T13:07:07;100281.28;;;21.16;53.92
48244;BME280;34053;51.088;6.572;2022-09-09T13:09:40;100270.50;;;21.29;53.61
48244;BME280;34053;51.088;6.572;2022-09-09T13:12:18;100263.72;;;21.25;53.93
48244;BME280;34053;51.088;6.572;2022-09-09T13:14:53;100251.22;;;21.37;53.78
48244;BME280;34053;51.088;6.572;2022-09-09T13:17:25;100244.88;;;21.49;53.48
48244;BME280;34053;51.088;6.572;2022-09-09T13:19:59;100242.47;;;21.46;53.71
48244;BME280;34053;51.088;6.572;2022-09-09T13:22:38;100248.78;;;21.34;53.29
48244;BME280;34053;51.088;6.572;2022-09-09T13:27:55;100256.06;;;21.09;54.59
48244;BME280;34053;51.088;6.572;2022-09-09T13:30:34;100262.25;;;20.98;54.41
48244;BME280;34053;51.088;6.572;2022-09-09T13:38:26;100263.56;;;20.34;58.17
48244;BME280;34053;51.088;6.572;2022-09-09T13:41:18;100252.22;;;20.55;58.55
48244;BME280;34053;51.088;6.572;2022-09-09T13:43:54;100253.16;;;20.78;58.64
48244;BME280;34053;51.088;6.572;2022-09-09T13:51:48;100234.38;;;21.14;56.44
48244;BME280;34053;51.088;6.572;2022-09-09T13:54:21;100228.91;;;21.27;55.37
48244;BME280;34053;51.088;6.572;2022-09-09T13:56:53;100227.44;;;21.34;55.31
48244;BME280;34053;51.088;6.572;2022-09-09T13:59:25;100231.44;;;21.39;54.49
48244;BME280;34053;51.088;6.572;2022-09-09T14:01:59;100228.19;;;21.36;54.90
48244;BME280;34053;51.088;6.572;2022-09-09T14:04:31;100231.91;;;21.45;54.83
48244;BME280;34053;51.088;6.572;2022-09-09T14:07:02;100239.19;;;21.54;54.20
48244;BME280;34053;51.088;6.572;2022-09-09T14:09:33;100238.03;;;21.35;53.42
48244;BME280;34053;51.088;6.572;2022-09-09T14:12:04;100236.06;;;21.15;54.22
48244;BME280;34053;51.088;6.572;2022-09-09T14:14:55;100242.75;;;21.32;53.09
48244;BME280;34053;51.088;6.572;2022-09-09T14:17:26;100238.16;;;21.22;52.98
48244;BME280;34053;51.088;6.572;2022-09-09T14:20:09;100245.91;;;20.80;54.04
48244;BME280;34053;51.088;6.572;2022-09-09T14:22:42;100251.00;;;20.95;56.27
48244;BME280;34053;51.088;6.572;2022-09-09T14:25:14;100250.56;;;20.65;57.85
48244;BME280;34053;51.088;6.572;2022-09-09T14:27:45;100259.72;;;20.50;55.97
48244;BME280;34053;51.088;6.572;2022-09-09T14:30:16;100270.88;;;20.55;53.57
48244;BME280;34053;51.088;6.572;2022-09-09T14:32:47;100289.22;;;20.71;53.72
48244;BME280;34053;51.088;6.572;2022-09-09T14:35:17;100288.91;;;20.40;55.05
48244;BME280;34053;51.088;6.572;2022-09-09T14:37:48;100298.75;;;20.62;55.59
48244;BME280;34053;51.088;6.572;2022-09-09T14:40:19;100299.47;;;20.53;58.20
48244;BME280;34053;51.088;6.572;2022-09-09T14:42:49;100307.56;;;20.51;59.24
48244;BME280;34053;51.088;6.572;2022-09-09T14:45:20;100273.34;;;20.69;57.99
48244;BME280;34053;51.088;6.572;2022-09-09T14:47:52;100266.78;;;20.62;57.46
48244;BME280;34053;51.088;6.572;2022-09-09T14:50:23;100271.41;;;20.71;58.46
48244;BME280;34053;51.088;6.572;2022-09-09T14:52:54;100277.16;;;20.54;60.39
48244;BME280;34053;51.088;6.572;2022-09-09T14:55:24;100269.97;;;20.67;60.54
48244;BME280;34053;51.088;6.572;2022-09-09T14:57:55;100267.03;;;20.70;62.61
48244;BME280;34053;51.088;6.572;2022-09-09T15:00:26;100258.72;;;20.75;60.84
48244;BME280;34053;51.088;6.572;2022-09-09T15:02:57;100259.44;;;20.77;60.72
48244;BME280;34053;51.088;6.572;2022-09-09T15:05:27;100247.13;;;20.87;60.15
48244;BME280;34053;51.088;6.572;2022-09-09T15:07:58;100249.28;;;20.94;62.42
48244;BME280;34053;51.088;6.572;2022-09-09T15:10:30;100247.34;;;20.96;61.51
48244;BME280;34053;51.088;6.572;2022-09-09T15:13:01;100240.22;;;21.07;61.20
48244;BME280;34053;51.088;6.572;2022-09-09T15:15:32;100240.22;;;21.07;60.47
48244;BME280;34053;51.088;6.572;2022-09-09T15:18:07;100243.00;;;21.06;60.84
48244;BME280;34053;51.088;6.572;2022-09-09T15:20:44;100247.47;;;21.05;60.78
48244;BME280;34053;51.088;6.572;2022-09-09T15:23:16;100262.38;;;21.08;60.30
48244;BME280;34053;51.088;6.572;2022-09-09T15:25:54;100260.31;;;21.12;60.54
48244;BME280;34053;51.088;6.572;2022-09-09T15:28:25;100259.25;;;21.03;60.12
48244;BME280;34053;51.088;6.572;2022-09-09T15:30:56;100251.09;;;21.04;60.28
48244;BME280;34053;51.088;6.572;2022-09-09T15:33:27;100256.44;;;21.04;60.24
48244;BME280;34053;51.088;6.572;2022-09-09T15:35:59;100256.81;;;21.00;60.44
48244;BME280;34053;51.088;6.572;2022-09-09T15:38:31;100248.19;;;20.96;60.46
48244;BME280;34053;51.088;6.572;2022-09-09T15:41:02;100254.75;;;20.92;60.50
48244;BME280;34053;51.088;6.572;2022-09-09T15:43:33;100243.97;;;20.94;60.86
48244;BME280;34053;51.088;6.572;2022-09-09T15:46:28;100246.84;;;20.79;62.36
48244;BME280;34053;51.088;6.572;2022-09-09T15:49:14;100249.28;;;20.94;62.52
48244;BME280;34053;51.088;6.572;2022-09-09T15:51:52;100247.41;;;20.60;64.39
48244;BME280;34053;51.088;6.572;2022-09-09T15:54:25;100247.25;;;20.86;63.15
48244;BME280;34053;51.088;6.572;2022-09-09T15:56:59;100251.00;;;21.06;63.14